createdAt,value
2023-02-08T00:01:51.453Z,-22606.58
2023-02-08T00:04:19.759Z,-22607.81
2023-02-08T00:06:50.008Z,-22609.90
2023-02-08T00:09:18.217Z,-22607.13
2023-02-08T00:11:46.296Z,-22605.48
2023-02-08T00:14:14.873Z,-22606.79
2023-02-08T00:16:43.102Z,-22604.15
2023-02-08T00:19:11.261Z,-22603.22
2023-02-08T00:21:39.622Z,-22604.97
2023-02-08T00:24:11.160Z,-22609.53
2023-02-08T00:26:39.590Z,-22611.10
2023-02-08T00:29:07.632Z,-22609.46
2023-02-08T00:31:40.045Z,-22609.83
2023-02-08T00:34:08.282Z,-22612.16
2023-02-08T00:36:36.658Z,-22618.60
2023-02-08T00:39:04.831Z,-22623.50
2023-02-08T00:41:33.370Z,-22624.29
2023-02-08T00:44:01.434Z,-22622.64
2023-02-08T00:46:30.452Z,-22615.35
2023-02-08T00:48:58.547Z,-22609.80
2023-02-08T00:51:27.359Z,-22606.58
2023-02-08T00:53:55.474Z,-22603.15
2023-02-08T00:56:24.278Z,-22603.84
2023-02-08T00:58:53.125Z,-22605.04
2023-02-08T01:01:21.206Z,-22608.81
2023-02-08T01:03:49.331Z,-22612.17
2023-02-08T01:06:19.647Z,-22616.62
2023-02-08T01:08:48.331Z,-22621.20
2023-02-08T01:11:22.442Z,-22625.79
2023-02-08T01:13:51.305Z,-22628.43
2023-02-08T01:16:21.470Z,-22629.91
2023-02-08T01:18:51.383Z,-22627.68
2023-02-08T01:21:24.155Z,-22627.75
2023-02-08T01:23:52.844Z,-22627.71
2023-02-08T01:26:21.727Z,-22630.01
2023-02-08T01:28:50.182Z,-22634.43
2023-02-08T01:31:20.413Z,-22635.46
2023-02-08T01:33:48.900Z,-22633.95
2023-02-08T01:36:17.318Z,-22628.02
2023-02-08T01:38:46.839Z,-22625.04
2023-02-08T01:41:20.235Z,-22620.21
2023-02-08T01:44:13.962Z,-22615.32
2023-02-08T01:46:43.880Z,-22614.18
2023-02-08T01:49:15.571Z,-22615.45
2023-02-08T01:51:56.285Z,-22615.14
2023-02-08T01:54:25.089Z,-22609.94
2023-02-08T01:56:53.479Z,-22607.78
2023-02-08T01:59:26.604Z,-22607.95
2023-02-08T02:01:56.595Z,-22603.36
2023-02-08T02:04:24.878Z,-22601.16
2023-02-08T02:06:54.817Z,-22598.80
2023-02-08T02:09:44.150Z,-22596.43
2023-02-08T02:12:15.599Z,-22592.12
2023-02-08T02:14:44.066Z,-22589.58
2023-02-08T02:17:13.836Z,-22590.61
2023-02-08T02:19:48.880Z,-22583.51
2023-02-08T02:22:32.098Z,-22576.49
2023-02-08T02:25:18.778Z,-22577.89
2023-02-08T02:28:14.841Z,-22583.93
2023-02-08T02:30:59.376Z,-22589.10
2023-02-08T02:33:34.295Z,-22596.64
2023-02-08T02:36:11.796Z,-22603.90
2023-02-08T02:39:23.908Z,-22608.26
2023-02-08T02:42:20.333Z,-22609.25
2023-02-08T02:45:03.463Z,-22609.90
2023-02-08T02:47:52.985Z,-22614.90
2023-02-08T02:50:27.641Z,-22619.77
2023-02-08T02:53:04.883Z,-22621.96
2023-02-08T02:55:34.290Z,-22620.59
2023-02-08T02:58:02.826Z,-22612.98
2023-02-08T03:00:31.146Z,-22606.65
2023-02-08T03:02:59.311Z,-22600.17
2023-02-08T03:05:28.411Z,-22597.97
2023-02-08T03:08:16.724Z,-22590.09
2023-02-08T03:10:58.394Z,-22584.51
2023-02-08T03:14:16.843Z,-22587.04
2023-02-08T03:17:08.752Z,-22592.60
2023-02-08T03:19:39.812Z,-22593.83
2023-02-08T03:22:36.299Z,-22593.42
2023-02-08T03:25:22.484Z,-22596.81
2023-02-08T03:28:00.955Z,-22598.56
2023-02-08T03:30:46.041Z,-22599.79
2023-02-08T03:33:21.665Z,-22595.44
2023-02-08T03:36:08.558Z,-22582.42
2023-02-08T03:38:39.761Z,-22574.36
2023-02-08T03:41:10.295Z,-22574.74
2023-02-08T03:43:46.715Z,-22573.37
2023-02-08T03:46:21.969Z,-22576.42
2023-02-08T03:48:54.414Z,-22580.05
2023-02-08T03:51:22.571Z,-22586.50
2023-02-08T03:53:50.749Z,-22588.62
2023-02-08T03:56:25.800Z,-22584.10
2023-02-08T03:59:00.130Z,-22576.52
2023-02-08T04:01:34.022Z,-22573.95
2023-02-08T04:04:02.385Z,-22574.16
2023-02-08T04:06:30.770Z,-22578.10
2023-02-08T04:08:58.960Z,-22583.72
2023-02-08T04:11:28.906Z,-22591.43
2023-02-08T04:13:58.065Z,-22597.39
2023-02-08T04:16:26.170Z,-22600.79
2023-02-08T04:18:54.195Z,-22604.83
2023-02-08T04:21:22.258Z,-22604.87
2023-02-08T04:23:50.414Z,-22601.95
2023-02-08T04:26:18.684Z,-22601.88
2023-02-08T04:28:46.765Z,-22603.18
2023-02-08T04:31:15.236Z,-22601.30
2023-02-08T04:33:43.376Z,-22599.00
2023-02-08T04:36:11.589Z,-22599.72
2023-02-08T04:38:40.298Z,-22603.87
2023-02-08T04:41:08.413Z,-22602.60
2023-02-08T04:43:37.066Z,-22599.14
2023-02-08T04:46:05.365Z,-22593.76
2023-02-08T04:48:33.591Z,-22591.46
2023-02-08T04:51:02.105Z,-22589.65
2023-02-08T04:53:31.717Z,-22589.24
2023-02-08T04:55:59.891Z,-22592.94
2023-02-08T04:58:27.981Z,-22594.75
2023-02-08T05:00:56.525Z,-22594.38
2023-02-08T05:03:25.378Z,-22596.23
2023-02-08T05:05:58.390Z,-22598.18
2023-02-08T05:08:26.685Z,-22596.23
2023-02-08T05:10:55.920Z,-22593.14
2023-02-08T05:13:24.697Z,-22590.81
2023-02-08T05:15:53.410Z,-22593.38
2023-02-08T05:18:22.314Z,-22596.47
2023-02-08T05:20:57.665Z,-22592.25
2023-02-08T05:23:26.481Z,-22589.92
2023-02-08T05:25:55.217Z,-22590.81
2023-02-08T05:28:24.115Z,-22590.98
2023-02-08T05:30:52.312Z,-22591.40
2023-02-08T05:33:20.472Z,-22590.71
2023-02-08T05:35:48.826Z,-22590.54
2023-02-08T05:38:16.897Z,-22591.26
2023-02-08T05:40:45.267Z,-22594.21
2023-02-08T05:43:13.371Z,-22597.94
2023-02-08T05:45:42.168Z,-22599.52
2023-02-08T05:48:10.275Z,-22596.54
2023-02-08T05:50:38.904Z,-22596.98
2023-02-08T05:53:11.328Z,-22597.74
2023-02-08T05:55:39.493Z,-22597.88
2023-02-08T05:58:07.515Z,-22597.94
2023-02-08T06:00:35.984Z,-22597.19
2023-02-08T06:03:04.308Z,-22599.31
2023-02-08T06:05:32.626Z,-22603.43
2023-02-08T06:08:00.788Z,-22607.54
2023-02-08T06:10:28.874Z,-22608.05
2023-02-08T06:12:56.981Z,-22610.42
2023-02-08T06:15:25.343Z,-22612.71
2023-02-08T06:17:53.653Z,-22611.03
2023-02-08T06:20:21.829Z,-22606.54
2023-02-08T06:22:50.796Z,-22607.68
2023-02-08T06:25:18.943Z,-22604.73
2023-02-08T06:27:47.534Z,-22597.88
2023-02-08T06:30:15.722Z,-22591.19
2023-02-08T06:32:43.871Z,-22590.09
2023-02-08T06:35:12.022Z,-22589.51
2023-02-08T06:37:40.389Z,-22583.69
2023-02-08T06:40:09.089Z,-22577.69
2023-02-08T06:42:37.977Z,-22572.61
2023-02-08T06:45:10.585Z,-22569.67
2023-02-08T06:47:39.756Z,-22568.05
2023-02-08T06:50:08.556Z,-22571.35
2023-02-08T06:52:36.838Z,-22582.86
2023-02-08T06:55:05.259Z,-22595.41
2023-02-08T06:57:33.959Z,-22603.60
2023-02-08T07:00:02.570Z,-22605.76
2023-02-08T07:02:31.256Z,-22607.33
2023-02-08T07:04:59.632Z,-22605.45
2023-02-08T07:07:27.939Z,-22604.32
2023-02-08T07:09:56.085Z,-22604.76
2023-02-08T07:12:24.246Z,-22601.88
2023-02-08T07:14:52.558Z,-22598.52
2023-02-08T07:17:20.621Z,-22595.40
2023-02-08T07:19:50.853Z,-22593.52
2023-02-08T07:22:18.957Z,-22591.46
2023-02-08T07:24:47.133Z,-22590.57
2023-02-08T07:27:15.854Z,-22592.80
2023-02-08T07:29:44.401Z,-22595.85
2023-02-08T07:32:13.560Z,-22597.98
2023-02-08T07:34:42.366Z,-22600.17
2023-02-08T07:37:10.493Z,-22603.18
2023-02-08T07:39:38.988Z,-22608.73
2023-02-08T07:42:08.776Z,-22613.50
2023-02-08T07:44:40.959Z,-22615.59
2023-02-08T07:47:09.496Z,-22616.82
2023-02-08T07:49:38.037Z,-22617.71
2023-02-08T07:52:06.095Z,-22619.12
2023-02-08T07:54:35.055Z,-22620.24
2023-02-08T07:57:03.818Z,-22620.31
2023-02-08T07:59:32.243Z,-22620.65
2023-02-08T08:02:02.074Z,-22622.43
2023-02-08T08:04:30.574Z,-22624.42
2023-02-08T08:06:59.059Z,-22628.84
2023-02-08T08:09:28.194Z,-22632.10
2023-02-08T08:11:56.342Z,-22633.47
2023-02-08T08:14:25.294Z,-22634.97
2023-02-08T08:16:53.367Z,-22636.96
2023-02-08T08:19:24.526Z,-22637.68
2023-02-08T08:21:52.672Z,-22639.12
2023-02-08T08:24:20.878Z,-22641.62
2023-02-08T08:26:49.763Z,-22643.61
2023-02-08T08:29:18.328Z,-22644.95
2023-02-08T08:31:46.663Z,-22646.25
2023-02-08T08:34:15.025Z,-22649.57
2023-02-08T08:36:43.151Z,-22653.89
2023-02-08T08:39:11.439Z,-22657.31
2023-02-08T08:41:39.901Z,-22658.68
2023-02-08T08:44:08.056Z,-22659.09
2023-02-08T08:46:36.272Z,-22660.26
2023-02-08T08:49:04.569Z,-22660.67
2023-02-08T08:51:35.537Z,-22661.52
2023-02-08T08:54:04.754Z,-22662.48
2023-02-08T08:56:33.016Z,-22663.23
2023-02-08T08:59:01.096Z,-22663.89
2023-02-08T09:01:31.418Z,-22664.74
2023-02-08T09:04:00.684Z,-22665.36
2023-02-08T09:06:29.111Z,-22665.87
2023-02-08T09:09:01.743Z,-22666.87
2023-02-08T09:11:30.045Z,-22669.26
2023-02-08T09:13:58.845Z,-22672.34
2023-02-08T09:16:27.023Z,-22676.93
2023-02-08T09:18:55.171Z,-22681.49
2023-02-08T09:21:25.461Z,-22687.00
2023-02-08T09:23:53.720Z,-22692.54
2023-02-08T09:26:23.424Z,-22696.93
2023-02-08T09:28:51.638Z,-22700.14
2023-02-08T09:31:27.648Z,-22701.17
2023-02-08T09:34:00.262Z,-22702.37
2023-02-08T09:36:30.366Z,-22702.78
2023-02-08T09:39:01.812Z,-22702.33
2023-02-08T09:42:03.850Z,-22702.09
2023-02-08T09:44:47.148Z,-22701.85
2023-02-08T09:47:23.118Z,-22702.50
2023-02-08T09:50:12.354Z,-22703.84
2023-02-08T09:52:56.576Z,-22706.95
2023-02-08T09:55:30.152Z,-22710.07
2023-02-08T09:57:58.449Z,-22712.36
2023-02-08T10:00:39.488Z,-22714.52
2023-02-08T10:03:19.331Z,-22717.12
2023-02-08T10:05:48.211Z,-22718.93
2023-02-08T10:08:16.336Z,-22720.37
2023-02-08T10:10:55.465Z,-22721.43
2023-02-08T10:13:52.409Z,-22723.58
2023-02-08T10:16:20.736Z,-22725.70
2023-02-08T10:18:58.510Z,-22728.23
2023-02-08T10:21:30.546Z,-22730.53
2023-02-08T10:24:08.810Z,-22731.80
2023-02-08T10:26:48.117Z,-22733.24
2023-02-08T10:29:29.409Z,-22733.44
2023-02-08T10:32:36.306Z,-22733.38
2023-02-08T10:35:07.569Z,-22733.79
2023-02-08T10:37:38.806Z,-22734.81
2023-02-08T10:40:18.870Z,-22738.17
2023-02-08T10:43:25.619Z,-22740.83
2023-02-08T10:46:05.940Z,-22742.61
2023-02-08T10:48:36.972Z,-22744.22
2023-02-08T10:51:05.179Z,-22746.44
2023-02-08T10:53:33.798Z,-22747.61
2023-02-08T10:56:01.906Z,-22747.74
2023-02-08T10:58:33.950Z,-22748.57
2023-02-08T11:01:02.174Z,-22748.94
2023-02-08T11:03:30.520Z,-22748.94
2023-02-08T11:05:58.839Z,-22749.11
2023-02-08T11:08:28.879Z,-22749.90
2023-02-08T11:11:00.405Z,-22749.49
2023-02-08T11:13:37.408Z,-22751.61
2023-02-08T11:16:26.469Z,-22753.59
2023-02-08T11:18:57.044Z,-22755.57
2023-02-08T11:21:33.759Z,-22756.29
2023-02-08T11:24:23.978Z,-22756.02
2023-02-08T11:26:52.129Z,-22755.20
2023-02-08T11:29:26.449Z,-22755.85
2023-02-08T11:31:59.192Z,-22756.22
2023-02-08T11:34:32.924Z,-22758.07
2023-02-08T11:37:02.992Z,-22759.06
2023-02-08T11:39:51.737Z,-22760.09
2023-02-08T11:42:26.631Z,-22759.78
2023-02-08T11:44:55.690Z,-22761.08
2023-02-08T11:47:25.765Z,-22761.80
2023-02-08T11:49:55.382Z,-22762.14
2023-02-08T11:52:25.767Z,-22763.10
2023-02-08T11:54:55.069Z,-22764.16
2023-02-08T11:57:27.988Z,-22765.77
2023-02-08T12:00:20.266Z,-22767.00
2023-02-08T12:02:50.864Z,-22768.81
2023-02-08T12:05:24.403Z,-22770.48
2023-02-08T12:08:08.050Z,-22768.91
2023-02-08T12:10:45.660Z,-22769.39
2023-02-08T12:13:38.884Z,-22768.74
2023-02-08T12:16:20.306Z,-22768.09
2023-02-08T12:19:04.983Z,-22769.56
2023-02-08T12:21:44.062Z,-22771.31
2023-02-08T12:24:24.449Z,-22772.67
2023-02-08T12:27:08.153Z,-22773.43
2023-02-08T12:29:47.252Z,-22772.57
2023-02-08T12:32:49.832Z,-22771.75
2023-02-08T12:35:54.050Z,-22772.98
2023-02-08T12:38:46.721Z,-22774.59
2023-02-08T12:41:39.193Z,-22774.45
2023-02-08T12:44:27.484Z,-22773.50
2023-02-08T12:47:13.012Z,-22772.91
2023-02-08T12:49:56.052Z,-22772.13
2023-02-08T12:52:41.702Z,-22771.04
2023-02-08T12:55:22.990Z,-22770.21
2023-02-08T12:57:53.554Z,-22769.43
2023-02-08T13:00:29.550Z,-22768.74
2023-02-08T13:03:25.045Z,-22768.30
2023-02-08T13:06:02.159Z,-22767.41
2023-02-08T13:08:50.635Z,-22767.24
2023-02-08T13:11:21.877Z,-22766.07
2023-02-08T13:13:57.942Z,-22765.66
2023-02-08T13:16:30.136Z,-22765.32
2023-02-08T13:19:21.787Z,-22765.15
2023-02-08T13:21:50.724Z,-22766.45
2023-02-08T13:24:39.104Z,-22766.76
2023-02-08T13:27:08.725Z,-22764.61
2023-02-08T13:29:37.499Z,-22763.65
2023-02-08T13:32:17.560Z,-22763.75
2023-02-08T13:34:49.304Z,-22763.78
2023-02-08T13:37:27.293Z,-22764.23
2023-02-08T13:40:30.234Z,-22764.61
2023-02-08T13:43:01.337Z,-22763.99
2023-02-08T13:45:29.455Z,-22764.09
2023-02-08T13:47:59.856Z,-22765.05
2023-02-08T13:50:33.646Z,-22768.61
2023-02-08T13:53:02.892Z,-22772.09
2023-02-08T13:55:35.926Z,-22773.63
2023-02-08T13:58:16.166Z,-22772.26
2023-02-08T14:01:01.176Z,-22769.25
2023-02-08T14:03:33.280Z,-22766.18
2023-02-08T14:06:19.251Z,-22764.02
2023-02-08T14:08:56.542Z,-22761.35
2023-02-08T14:11:42.995Z,-22758.45
2023-02-08T14:14:23.373Z,-22756.91
2023-02-08T14:17:09.725Z,-22754.55
2023-02-08T14:19:42.675Z,-22752.87
2023-02-08T14:22:13.948Z,-22751.20
2023-02-08T14:24:50.439Z,-22750.07
2023-02-08T14:27:22.778Z,-22749.21
2023-02-08T14:30:03.065Z,-22747.43
2023-02-08T14:32:33.781Z,-22746.82
2023-02-08T14:35:15.821Z,-22745.55
2023-02-08T14:37:44.517Z,-22744.63
2023-02-08T14:40:24.491Z,-22743.47
2023-02-08T14:46:37.785Z,-22740.32
2023-02-08T14:49:13.863Z,-22737.11
2023-02-08T14:51:50.494Z,-22735.80
2023-02-08T14:54:25.916Z,-22733.72
2023-02-08T14:56:57.668Z,-22731.43
2023-02-08T14:59:27.660Z,-22727.35
2023-02-08T15:02:11.544Z,-22724.13
2023-02-08T15:04:44.345Z,-22721.91
2023-02-08T15:07:44.760Z,-22721.05
2023-02-08T15:10:14.231Z,-22719.00
2023-02-08T15:12:44.418Z,-22717.39
2023-02-08T15:15:28.786Z,-22716.84
2023-02-08T15:17:57.233Z,-22716.02
2023-02-08T15:20:31.455Z,-22714.58
2023-02-08T15:23:19.592Z,-22712.05
2023-02-08T15:26:04.527Z,-22708.39
2023-02-08T15:28:35.483Z,-22703.74
2023-02-08T15:31:10.316Z,-22700.66
2023-02-08T15:33:38.934Z,-22697.51
2023-02-08T15:36:08.902Z,-22694.60
2023-02-08T15:38:38.663Z,-22691.07
2023-02-08T15:41:10.371Z,-22687.86
2023-02-08T15:43:39.807Z,-22683.47
2023-02-08T15:46:21.374Z,-22679.46
2023-02-08T15:48:52.772Z,-22675.46
2023-02-08T15:51:23.206Z,-22670.91
2023-02-08T15:53:52.856Z,-22666.46
2023-02-08T15:56:37.181Z,-22663.00
2023-02-08T15:59:06.634Z,-22660.22
2023-02-08T16:01:35.164Z,-22657.82
2023-02-08T16:04:06.251Z,-22655.32
2023-02-08T16:06:37.663Z,-22652.62
2023-02-08T16:09:07.020Z,-22650.15
2023-02-08T16:11:36.018Z,-22649.13
2023-02-08T16:14:05.659Z,-22649.68
2023-02-08T16:16:40.403Z,-22650.39
2023-02-08T16:19:29.053Z,-22651.21
2023-02-08T16:22:21.595Z,-22652.42
2023-02-08T16:24:51.111Z,-22652.65
2023-02-08T16:27:30.115Z,-22652.52
2023-02-08T16:29:59.483Z,-22657.86
2023-02-08T16:32:29.814Z,-22665.91
2023-02-08T16:34:58.058Z,-22665.80
2023-02-08T16:37:33.193Z,-22660.36
2023-02-08T16:40:03.155Z,-22653.58
2023-02-08T16:42:33.992Z,-22644.16
2023-02-08T16:45:12.907Z,-22636.55
2023-02-08T16:47:52.170Z,-22631.45
2023-02-08T16:50:28.011Z,-22631.51
2023-02-08T16:52:59.721Z,-22633.37
2023-02-08T16:55:31.387Z,-22632.27
2023-02-08T16:57:59.838Z,-22630.59
2023-02-08T17:00:30.112Z,-22632.75
2023-02-08T17:02:59.235Z,-22638.06
2023-02-08T17:05:32.055Z,-22639.57
2023-02-08T17:08:00.817Z,-22636.00
2023-02-08T17:10:32.448Z,-22632.88
2023-02-08T17:13:19.383Z,-22632.44
2023-02-08T17:15:49.947Z,-22637.72
2023-02-08T17:18:18.523Z,-22643.20
2023-02-08T17:20:47.009Z,-22640.66
2023-02-08T17:23:16.189Z,-22636.86
2023-02-08T17:25:44.775Z,-22635.66
2023-02-08T17:28:51.252Z,-22636.82
2023-02-08T17:32:13.631Z,-22640.70
2023-02-08T17:38:19.674Z,-22640.21
2023-02-08T17:40:47.405Z,-22631.99
2023-02-08T17:43:14.437Z,-22624.18
2023-02-08T17:45:45.511Z,-22616.21
2023-02-08T17:48:12.920Z,-22611.10
2023-02-08T17:51:21.617Z,-22607.61
2023-02-08T17:53:49.483Z,-22607.64
2023-02-08T17:56:21.579Z,-22612.78
2023-02-08T17:58:51.436Z,-22619.22
2023-02-08T18:01:24.469Z,-22625.52
2023-02-08T18:03:52.627Z,-22630.38
2023-02-08T18:06:21.247Z,-22636.82
2023-02-08T18:08:48.880Z,-22641.28
2023-02-08T18:11:20.165Z,-22645.22
2023-02-08T18:13:48.200Z,-22644.26
2023-02-08T18:16:23.206Z,-22643.68
2023-02-08T18:18:50.427Z,-22649.09
2023-02-08T18:21:21.569Z,-22654.06
2023-02-08T18:23:49.647Z,-22655.97
2023-02-08T18:26:19.920Z,-22654.57
2023-02-08T18:28:50.737Z,-22651.21
2023-02-08T18:31:19.631Z,-22645.63
2023-02-08T18:33:47.852Z,-22637.00
2023-02-08T18:36:15.670Z,-22626.48
2023-02-08T18:39:04.865Z,-22620.83
2023-02-08T18:41:32.233Z,-22620.04
2023-02-08T18:43:59.936Z,-22620.24
2023-02-08T18:46:29.875Z,-22620.38
2023-02-08T18:48:59.763Z,-22620.76
2023-02-08T18:51:27.152Z,-22622.33
2023-02-08T18:53:56.922Z,-22624.29
2023-02-08T18:56:25.372Z,-22627.82
2023-02-08T18:59:12.501Z,-22631.31
2023-02-08T19:01:41.526Z,-22634.43
2023-02-08T19:04:09.300Z,-22631.62
2023-02-08T19:06:36.400Z,-22633.71
2023-02-08T19:09:06.941Z,-22638.47
2023-02-08T19:11:35.649Z,-22642.00
2023-02-08T19:14:08.052Z,-22642.51
2023-02-08T19:16:36.144Z,-22642.99
2023-02-08T19:19:04.205Z,-22644.64
2023-02-08T19:21:32.379Z,-22646.39
2023-02-08T19:24:02.405Z,-22648.58
2023-02-08T19:26:36.357Z,-22643.54
2023-02-08T19:29:03.543Z,-22643.30
2023-02-08T19:31:30.803Z,-22639.91
2023-02-08T19:34:03.271Z,-22642.13
2023-02-08T19:36:37.240Z,-22639.97
2023-02-08T19:39:05.072Z,-22635.97
2023-02-08T19:41:37.719Z,-22637.75
2023-02-08T19:44:06.377Z,-22643.75
2023-02-08T19:46:34.622Z,-22646.49
2023-02-08T19:49:02.636Z,-22649.13
2023-02-08T19:51:32.421Z,-22646.29
2023-02-08T19:54:01.593Z,-22646.01
2023-02-08T19:56:33.671Z,-22646.01
2023-02-08T19:59:03.475Z,-22643.71
2023-02-08T20:01:32.577Z,-22643.37
2023-02-08T20:03:59.966Z,-22641.41
2023-02-08T20:06:28.839Z,-22635.97
2023-02-08T20:08:55.683Z,-22635.29
2023-02-08T20:11:24.505Z,-22635.38
2023-02-08T20:13:52.204Z,-22636.07
2023-02-08T20:16:19.927Z,-22635.11
2023-02-08T20:18:47.405Z,-22634.53
2023-02-08T20:21:16.222Z,-22632.82
2023-02-08T20:23:43.212Z,-22631.72
2023-02-08T20:26:19.201Z,-22631.34
2023-02-08T20:28:54.102Z,-22633.85
2023-02-08T20:31:27.137Z,-22633.98
2023-02-08T20:33:55.322Z,-22633.46
2023-02-08T20:39:48.332Z,-22633.57
2023-02-08T20:42:16.562Z,-22634.77
2023-02-08T20:44:44.698Z,-22634.63
2023-02-08T20:47:14.261Z,-22628.50
2023-02-08T20:49:43.680Z,-22617.27
2023-02-08T20:52:12.306Z,-22608.98
2023-02-08T20:54:42.486Z,-22602.43
2023-02-08T20:57:18.407Z,-22594.52
2023-02-08T20:59:50.138Z,-22588.07
2023-02-08T21:02:22.545Z,-22582.18
2023-02-08T21:04:50.721Z,-22570.66
2023-02-08T21:07:18.962Z,-22560.89
2023-02-08T21:09:47.497Z,-22565.93
2023-02-08T21:12:16.284Z,-22575.53
2023-02-08T21:14:45.001Z,-22584.51
2023-02-08T21:17:18.625Z,-22591.57
2023-02-08T21:19:47.844Z,-22596.09
2023-02-08T21:22:17.244Z,-22601.13
2023-02-08T21:24:45.661Z,-22602.95
2023-02-08T21:27:13.771Z,-22603.80
2023-02-08T21:29:41.970Z,-22606.06
2023-02-08T21:32:10.298Z,-22606.37
2023-02-08T21:34:39.875Z,-22606.34
2023-02-08T21:37:08.008Z,-22607.68
2023-02-08T21:39:36.499Z,-22609.80
2023-02-08T21:42:05.001Z,-22609.04
2023-02-08T21:44:35.299Z,-22605.89
2023-02-08T21:47:03.755Z,-22601.95
2023-02-08T21:49:50.942Z,-22599.07
2023-02-08T21:52:37.524Z,-22593.32
2023-02-08T21:55:06.404Z,-22583.38
2023-02-08T21:57:39.973Z,-22584.13
2023-02-08T22:00:10.418Z,-22589.48
2023-02-08T22:02:41.891Z,-22594.65
2023-02-08T22:05:28.547Z,-22596.54
2023-02-08T22:07:59.847Z,-22598.46
2023-02-08T22:10:29.337Z,-22602.81
2023-02-08T22:12:58.070Z,-22605.10
2023-02-08T22:15:27.977Z,-22605.31
2023-02-08T22:18:00.624Z,-22606.24
2023-02-08T22:20:30.055Z,-22607.71
2023-02-08T22:22:58.842Z,-22606.20
2023-02-08T22:25:27.720Z,-22602.78
2023-02-08T22:27:55.850Z,-22602.67
2023-02-08T22:30:25.650Z,-22602.50
2023-02-08T22:32:54.011Z,-22605.52
2023-02-08T22:35:22.877Z,-22608.57
2023-02-08T22:37:51.107Z,-22610.83
2023-02-08T22:40:19.444Z,-22609.87
2023-02-08T22:42:47.684Z,-22605.14
2023-02-08T22:45:15.873Z,-22602.33
2023-02-08T22:47:45.997Z,-22598.59
2023-02-08T22:50:14.749Z,-22592.87
2023-02-08T22:52:43.656Z,-22585.91
2023-02-08T22:55:14.060Z,-22579.81
2023-02-08T22:57:43.648Z,-22578.17
2023-02-08T23:00:14.254Z,-22577.04
2023-02-08T23:02:43.273Z,-22576.49
2023-02-08T23:05:11.458Z,-22577.24
2023-02-08T23:07:40.366Z,-22575.63
2023-02-08T23:10:11.500Z,-22578.20
2023-02-08T23:12:40.008Z,-22581.97
2023-02-08T23:15:10.551Z,-22585.26
2023-02-08T23:17:38.749Z,-22586.08
2023-02-08T23:20:07.424Z,-22587.46
2023-02-08T23:22:38.700Z,-22587.66
2023-02-08T23:25:07.146Z,-22587.73
2023-02-08T23:27:36.902Z,-22586.15
2023-02-08T23:30:07.854Z,-22582.90
2023-02-08T23:32:37.936Z,-22580.39
2023-02-08T23:35:08.427Z,-22581.83
2023-02-08T23:37:36.663Z,-22583.31
2023-02-08T23:40:05.260Z,-22580.26
2023-02-08T23:42:33.771Z,-22579.40
2023-02-08T23:45:02.744Z,-22579.60
2023-02-08T23:47:31.495Z,-22578.03
2023-02-08T23:49:59.550Z,-22576.83
2023-02-08T23:52:27.995Z,-22576.18
2023-02-08T23:54:56.228Z,-22576.18
2023-02-08T23:57:24.425Z,-22578.85
2023-02-08T23:59:52.513Z,-22582.01
